createdAt,value
2019-05-09T00:01:18.929Z,97.25
2019-05-09T00:03:48.934Z,97.86
2019-05-09T00:06:19.177Z,96.49
2019-05-09T00:08:49.312Z,94.02
2019-05-09T00:11:19.498Z,94.37
2019-05-09T00:13:49.482Z,95.33
2019-05-09T00:16:19.497Z,92.59
2019-05-09T00:18:49.466Z,92.59
2019-05-09T00:21:25.087Z,91.84
2019-05-09T00:23:55.139Z,92.58
2019-05-09T00:26:25.138Z,93.04
2019-05-09T00:28:59.095Z,91.09
2019-05-09T00:31:51.132Z,91.63
2019-05-09T00:34:33.714Z,90.74
2019-05-09T00:37:03.389Z,90.89
2019-05-09T00:39:34.124Z,90.92
2019-05-09T00:42:04.571Z,91.61
2019-05-09T00:44:36.557Z,91.61
2019-05-09T00:47:27.402Z,89.99
2019-05-09T00:49:57.497Z,93.76
2019-05-09T00:52:27.502Z,91.28
2019-05-09T00:54:57.546Z,94.65
2019-05-09T00:57:33.711Z,93.63
2019-05-09T01:00:07.504Z,91.55
2019-05-09T01:02:37.542Z,93.41
2019-05-09T01:05:07.457Z,93.79
2019-05-09T01:07:37.468Z,92.73
2019-05-09T01:10:07.563Z,91.98
2019-05-09T01:12:37.542Z,92.67
2019-05-09T01:15:07.716Z,92.67
2019-05-09T01:17:38.181Z,93.06
2019-05-09T01:20:08.325Z,93.06
2019-05-09T01:22:38.308Z,90.04
2019-05-09T01:25:08.396Z,90.34
2019-05-09T01:27:38.391Z,90.24
2019-05-09T01:30:08.416Z,90.55
2019-05-09T01:32:57.348Z,88.93
2019-05-09T01:35:27.326Z,88.93
2019-05-09T01:37:57.336Z,90.09
2019-05-09T01:40:27.298Z,88.85
2019-05-09T01:42:57.289Z,88.85
2019-05-09T01:45:27.257Z,88.08
2019-05-09T01:47:57.439Z,87.80
2019-05-09T01:50:27.483Z,87.30
2019-05-09T01:52:58.246Z,87.85
2019-05-09T01:55:47.232Z,87.74
2019-05-09T01:58:17.228Z,88.35
2019-05-09T02:00:47.306Z,88.13
2019-05-09T02:03:17.296Z,88.33
2019-05-09T02:05:47.279Z,87.74
2019-05-09T02:08:17.278Z,86.64
2019-05-09T02:10:47.435Z,86.71
2019-05-09T02:13:17.727Z,87.25
2019-05-09T02:16:14.164Z,87.25
2019-05-09T02:19:09.579Z,87.85
2019-05-09T02:21:39.562Z,87.85
2019-05-09T02:24:09.561Z,88.15
2019-05-09T02:26:39.554Z,86.74
2019-05-09T02:29:09.812Z,87.77
2019-05-09T02:31:39.803Z,87.77
2019-05-09T02:34:09.876Z,87.11
2019-05-09T02:36:39.852Z,87.15
2019-05-09T02:39:09.846Z,86.74
2019-05-09T02:41:59.071Z,86.94
2019-05-09T02:44:11.552Z,87.85
2019-05-09T02:46:51.892Z,87.85
2019-05-09T02:49:21.889Z,87.92
2019-05-09T02:51:51.858Z,87.92
2019-05-09T02:54:22.432Z,87.12
2019-05-09T02:56:52.612Z,87.32
2019-05-09T02:59:40.396Z,87.32
2019-05-09T03:02:38.787Z,86.26
2019-05-09T03:05:09.061Z,88.31
2019-05-09T03:07:51.426Z,89.18
2019-05-09T03:10:22.491Z,88.21
2019-05-09T03:12:53.203Z,87.60
2019-05-09T03:15:23.223Z,89.38
2019-05-09T03:17:53.185Z,88.65
2019-05-09T03:20:49.380Z,87.68
2019-05-09T03:28:24.372Z,87.98
2019-05-09T03:30:59.229Z,88.25
2019-05-09T03:33:29.552Z,89.52
2019-05-09T03:35:59.403Z,91.60
2019-05-09T03:38:29.383Z,92.03
2019-05-09T03:40:59.497Z,91.32
2019-05-09T03:43:29.553Z,92.65
2019-05-09T03:46:07.791Z,93.08
2019-05-09T03:48:42.549Z,93.97
2019-05-09T03:51:12.562Z,92.73
2019-05-09T03:53:42.553Z,92.30
2019-05-09T03:56:15.041Z,91.47
2019-05-09T03:58:45.010Z,91.67
2019-05-09T04:01:17.405Z,91.80
2019-05-09T04:03:48.153Z,90.73
2019-05-09T04:06:18.610Z,89.83
2019-05-09T04:08:48.669Z,88.12
2019-05-09T04:11:18.678Z,89.44
2019-05-09T04:13:54.445Z,88.79
2019-05-09T04:16:24.476Z,88.62
2019-05-09T04:18:54.471Z,88.81
2019-05-09T04:21:24.473Z,88.87
2019-05-09T04:23:54.740Z,89.06
2019-05-09T04:27:02.391Z,89.92
2019-05-09T04:29:32.411Z,87.96
2019-05-09T04:32:02.438Z,87.61
2019-05-09T04:34:32.393Z,88.45
2019-05-09T04:37:02.399Z,88.19
2019-05-09T04:39:32.384Z,87.22
2019-05-09T04:42:05.469Z,87.68
2019-05-09T04:44:42.581Z,87.36
2019-05-09T04:47:12.601Z,89.58
2019-05-09T04:49:45.090Z,90.60
2019-05-09T04:52:14.313Z,92.20
2019-05-09T04:54:44.302Z,90.80
2019-05-09T04:57:14.311Z,91.66
2019-05-09T04:59:44.350Z,91.43
2019-05-09T05:02:38.051Z,90.61
2019-05-09T05:05:08.558Z,91.70
2019-05-09T05:07:38.640Z,92.49
2019-05-09T05:10:09.270Z,95.03
2019-05-09T05:12:39.354Z,95.72
2019-05-09T05:15:10.724Z,96.02
2019-05-09T05:17:40.802Z,95.51
2019-05-09T05:20:15.691Z,96.36
2019-05-09T05:22:54.003Z,97.92
2019-05-09T05:25:24.065Z,96.91
2019-05-09T05:27:54.070Z,97.53
2019-05-09T05:30:24.066Z,97.48
2019-05-09T05:32:58.532Z,96.25
2019-05-09T05:35:50.881Z,97.55
2019-05-09T05:38:20.892Z,98.81
2019-05-09T05:40:50.911Z,99.34
2019-05-09T05:43:20.937Z,98.52
2019-05-09T05:45:58.483Z,99.24
2019-05-09T05:48:30.144Z,99.67
2019-05-09T05:51:00.165Z,99.72
2019-05-09T05:53:30.166Z,99.07
2019-05-09T05:56:00.193Z,99.32
2019-05-09T05:58:30.234Z,99.58
2019-05-09T06:01:02.398Z,99.18
2019-05-09T06:03:31.962Z,99.63
2019-05-09T06:06:01.964Z,99.28
2019-05-09T06:08:31.958Z,99.28
2019-05-09T06:11:02.001Z,99.72
2019-05-09T06:13:32.016Z,99.51
2019-05-09T06:16:02.004Z,99.12
2019-05-09T06:18:32.027Z,99.12
2019-05-09T06:21:02.043Z,98.76
2019-05-09T06:23:32.059Z,99.24
2019-05-09T06:26:02.136Z,98.95
2019-05-09T06:28:32.192Z,98.03
2019-05-09T06:31:02.297Z,97.66
2019-05-09T06:33:32.332Z,97.06
2019-05-09T06:36:02.339Z,96.94
2019-05-09T06:38:32.352Z,96.73
2019-05-09T06:41:02.365Z,96.73
2019-05-09T06:43:34.617Z,97.15
2019-05-09T06:46:27.756Z,96.53
2019-05-09T06:49:20.044Z,96.96
2019-05-09T06:51:30.078Z,96.13
2019-05-09T06:54:00.120Z,96.61
2019-05-09T06:56:30.112Z,97.11
2019-05-09T06:59:00.140Z,96.37
2019-05-09T07:01:57.481Z,95.70
2019-05-09T07:04:31.654Z,95.48
2019-05-09T07:07:07.996Z,95.50
2019-05-09T07:09:44.934Z,95.50
2019-05-09T07:12:14.917Z,95.31
2019-05-09T07:14:45.005Z,94.67
2019-05-09T07:17:14.988Z,95.19
2019-05-09T07:19:45.014Z,95.19
2019-05-09T07:22:39.191Z,94.53
2019-05-09T07:25:27.861Z,94.41
2019-05-09T07:27:58.703Z,93.99
2019-05-09T07:30:59.737Z,94.11
2019-05-09T07:33:38.323Z,94.08
2019-05-09T07:36:08.648Z,94.32
2019-05-09T07:38:38.718Z,94.32
2019-05-09T07:41:09.159Z,94.40
2019-05-09T07:43:39.156Z,93.95
2019-05-09T07:46:17.719Z,93.72
2019-05-09T07:49:48.215Z,93.72
2019-05-09T07:52:18.729Z,94.22
2019-05-09T07:54:48.834Z,94.24
2019-05-09T07:57:18.871Z,92.99
2019-05-09T07:59:48.863Z,92.90
2019-05-09T08:02:18.873Z,92.05
2019-05-09T08:04:49.150Z,92.48
2019-05-09T08:07:19.087Z,91.59
2019-05-09T08:09:49.077Z,91.72
2019-05-09T08:12:19.125Z,93.64
2019-05-09T08:15:06.821Z,93.64
2019-05-09T08:17:20.850Z,91.60
2019-05-09T08:19:50.837Z,93.75
2019-05-09T08:22:25.647Z,92.21
2019-05-09T08:24:52.588Z,91.51
2019-05-09T08:27:22.776Z,92.11
2019-05-09T08:29:52.763Z,90.96
2019-05-09T08:32:22.777Z,91.27
2019-05-09T08:34:52.735Z,90.00
2019-05-09T08:37:22.749Z,89.72
2019-05-09T08:39:52.729Z,90.62
2019-05-09T08:42:22.757Z,88.24
2019-05-09T08:44:52.791Z,90.47
2019-05-09T08:47:22.811Z,88.09
2019-05-09T08:50:14.555Z,87.33
2019-05-09T08:52:44.577Z,89.20
2019-05-09T08:55:14.579Z,86.32
2019-05-09T08:57:44.615Z,88.39
2019-05-09T09:00:14.986Z,88.11
2019-05-09T09:02:44.969Z,87.65
2019-05-09T09:05:14.984Z,86.83
2019-05-09T09:07:45.008Z,88.11
2019-05-09T09:10:15.093Z,88.42
2019-05-09T09:12:47.530Z,86.62
2019-05-09T09:15:18.002Z,85.36
2019-05-09T09:17:49.056Z,86.01
2019-05-09T09:20:19.272Z,85.46
2019-05-09T09:22:49.315Z,84.78
2019-05-09T09:25:19.298Z,83.34
2019-05-09T09:27:51.170Z,85.06
2019-05-09T09:30:24.998Z,84.88
2019-05-09T09:32:53.212Z,85.37
2019-05-09T09:35:23.201Z,83.77
2019-05-09T09:37:53.328Z,81.98
2019-05-09T09:40:23.322Z,81.88
2019-05-09T09:42:53.304Z,81.93
2019-05-09T09:45:23.321Z,83.59
2019-05-09T09:47:53.371Z,83.40
2019-05-09T09:50:23.345Z,84.60
2019-05-09T09:52:53.381Z,83.55
2019-05-09T09:55:23.364Z,83.75
2019-05-09T09:57:53.374Z,84.13
2019-05-09T10:01:03.526Z,83.84
2019-05-09T10:03:35.060Z,83.25
2019-05-09T10:06:05.024Z,81.62
2019-05-09T10:08:35.032Z,77.65
2019-05-09T10:11:07.866Z,79.04
2019-05-09T10:13:37.497Z,77.11
2019-05-09T10:16:32.540Z,77.38
2019-05-09T10:19:29.122Z,77.43
2019-05-09T10:22:00.492Z,79.59
2019-05-09T10:24:30.503Z,79.54
2019-05-09T10:27:08.850Z,80.01
2019-05-09T10:29:39.170Z,79.99
2019-05-09T10:32:12.394Z,78.00
2019-05-09T10:34:42.430Z,78.25
2019-05-09T10:37:12.631Z,78.19
2019-05-09T10:39:42.606Z,79.14
2019-05-09T10:42:43.661Z,79.28
2019-05-09T10:45:40.726Z,78.27
2019-05-09T10:48:09.417Z,78.54
2019-05-09T10:50:44.557Z,76.96
2019-05-09T10:53:11.144Z,80.12
2019-05-09T10:55:41.161Z,80.39
2019-05-09T10:58:11.131Z,76.22
2019-05-09T11:00:41.641Z,75.49
2019-05-09T11:03:11.623Z,74.54
2019-05-09T11:05:41.646Z,74.02
2019-05-09T11:08:11.646Z,76.19
2019-05-09T11:10:42.972Z,72.60
2019-05-09T11:13:12.938Z,74.80
2019-05-09T11:15:42.945Z,73.41
2019-05-09T11:18:12.894Z,71.87
2019-05-09T11:20:42.922Z,72.29
2019-05-09T11:23:12.892Z,69.73
2019-05-09T11:25:42.913Z,67.77
2019-05-09T11:28:15.163Z,75.75
2019-05-09T11:30:44.579Z,71.90
2019-05-09T11:33:14.544Z,71.66
2019-05-09T11:35:44.568Z,72.80
2019-05-09T11:38:14.586Z,69.19
2019-05-09T11:40:44.623Z,66.00
2019-05-09T11:47:42.907Z,70.56
2019-05-09T11:50:08.836Z,69.32
2019-05-09T11:52:38.533Z,68.71
2019-05-09T11:55:27.501Z,66.63
2019-05-09T11:57:40.229Z,66.36
2019-05-09T12:00:11.141Z,68.03
2019-05-09T12:02:41.128Z,70.40
2019-05-09T12:05:11.110Z,70.40
2019-05-09T12:07:41.198Z,69.72
2019-05-09T12:10:11.185Z,71.07
2019-05-09T12:12:41.173Z,67.32
2019-05-09T12:15:11.167Z,71.50
2019-05-09T12:17:56.496Z,70.55
2019-05-09T12:20:13.663Z,73.46
2019-05-09T12:22:43.891Z,71.37
2019-05-09T12:25:14.074Z,69.68
2019-05-09T12:27:44.038Z,73.49
2019-05-09T12:30:14.403Z,76.04
2019-05-09T12:32:44.392Z,73.47
2019-05-09T12:35:14.469Z,72.09
2019-05-09T12:37:44.468Z,64.06
2019-05-09T12:40:14.458Z,67.68
2019-05-09T12:42:44.467Z,69.63
2019-05-09T12:45:14.854Z,67.67
2019-05-09T12:47:44.841Z,70.87
2019-05-09T12:50:14.836Z,71.62
2019-05-09T12:52:44.850Z,70.67
2019-05-09T12:55:14.828Z,71.08
2019-05-09T12:57:44.902Z,68.78
2019-05-09T13:00:18.448Z,66.84
2019-05-09T13:02:47.753Z,63.46
2019-05-09T13:05:18.276Z,66.61
2019-05-09T13:07:48.342Z,67.08
2019-05-09T13:10:19.431Z,68.39
2019-05-09T13:12:49.712Z,68.71
2019-05-09T13:15:21.480Z,65.98
2019-05-09T13:17:51.532Z,66.10
2019-05-09T13:20:21.514Z,67.97
2019-05-09T13:22:51.511Z,67.35
2019-05-09T13:25:21.487Z,67.64
2019-05-09T13:27:52.927Z,69.60
2019-05-09T13:30:23.224Z,70.01
2019-05-09T13:32:53.242Z,68.54
2019-05-09T13:35:23.212Z,67.79
2019-05-09T13:37:53.192Z,69.59
2019-05-09T13:40:23.157Z,68.48
2019-05-09T13:42:53.146Z,69.10
2019-05-09T13:45:23.141Z,69.95
2019-05-09T13:47:53.131Z,71.31
2019-05-09T13:50:23.162Z,70.51
2019-05-09T13:52:53.160Z,69.62
2019-05-09T13:55:23.154Z,71.87
2019-05-09T13:57:53.159Z,72.99
2019-05-09T14:00:23.177Z,73.82
2019-05-09T14:02:53.181Z,72.66
2019-05-09T14:05:23.193Z,75.44
2019-05-09T14:07:55.095Z,75.43
2019-05-09T14:10:24.876Z,75.78
2019-05-09T14:13:08.911Z,77.48
2019-05-09T14:15:27.508Z,82.49
2019-05-09T14:17:58.261Z,79.97
2019-05-09T14:20:28.464Z,83.42
2019-05-09T14:22:58.481Z,79.46
2019-05-09T14:25:29.165Z,80.22
2019-05-09T14:27:59.261Z,78.43
2019-05-09T14:30:29.231Z,79.41
2019-05-09T14:33:00.250Z,81.21
2019-05-09T14:35:30.570Z,78.61
2019-05-09T14:38:00.640Z,78.91
2019-05-09T14:40:30.626Z,71.71
2019-05-09T14:43:00.625Z,71.65
2019-05-09T14:45:30.642Z,70.70
2019-05-09T14:48:00.644Z,73.79
2019-05-09T14:50:30.618Z,70.84
2019-05-09T14:53:00.639Z,72.98
2019-05-09T14:55:30.686Z,73.62
2019-05-09T14:58:00.691Z,74.69
2019-05-09T15:00:30.835Z,73.44
2019-05-09T15:03:00.848Z,73.28
2019-05-09T15:05:30.943Z,70.73
2019-05-09T15:08:00.992Z,71.32
2019-05-09T15:10:31.019Z,70.53
2019-05-09T15:13:01.089Z,69.81
2019-05-09T15:15:32.702Z,68.13
2019-05-09T15:18:02.835Z,70.45
2019-05-09T15:20:32.834Z,69.70
2019-05-09T15:23:02.838Z,69.53
2019-05-09T15:25:32.853Z,70.67
2019-05-09T15:28:02.818Z,68.70
2019-05-09T15:30:32.816Z,68.80
2019-05-09T15:33:02.800Z,71.19
2019-05-09T15:35:32.813Z,69.91
2019-05-09T15:38:02.879Z,70.05
2019-05-09T15:40:32.974Z,67.61
2019-05-09T15:43:02.936Z,68.28
2019-05-09T15:45:40.819Z,66.07
2019-05-09T15:48:09.080Z,68.18
2019-05-09T15:50:39.081Z,70.98
2019-05-09T15:53:09.078Z,68.18
2019-05-09T15:55:39.092Z,68.43
2019-05-09T15:58:09.097Z,69.37
2019-05-09T16:00:39.232Z,69.60
2019-05-09T16:03:09.219Z,70.14
2019-05-09T16:05:39.222Z,69.30
2019-05-09T16:08:11.572Z,69.83
2019-05-09T16:10:40.949Z,69.56
2019-05-09T16:13:10.925Z,68.60
2019-05-09T16:15:40.928Z,66.92
2019-05-09T16:18:10.908Z,70.11
2019-05-09T16:20:41.440Z,70.16
2019-05-09T16:23:11.486Z,71.01
2019-05-09T16:25:41.519Z,70.77
2019-05-09T16:28:11.524Z,69.69
2019-05-09T16:30:41.598Z,68.62
2019-05-09T16:33:11.590Z,69.25
2019-05-09T16:35:41.602Z,70.08
2019-05-09T16:38:11.617Z,71.10
2019-05-09T16:40:41.620Z,70.63
2019-05-09T16:43:11.587Z,72.62
2019-05-09T16:45:41.635Z,70.85
2019-05-09T16:48:11.700Z,72.69
2019-05-09T16:50:57.755Z,71.60
2019-05-09T16:53:14.021Z,73.44
2019-05-09T16:55:44.034Z,73.16
2019-05-09T16:58:14.060Z,71.79
2019-05-09T17:00:49.526Z,71.78
2019-05-09T17:03:19.498Z,72.98
2019-05-09T17:05:49.564Z,74.08
2019-05-09T17:08:19.570Z,76.18
2019-05-09T17:10:49.628Z,76.37
2019-05-09T17:13:19.597Z,76.40
2019-05-09T17:15:49.621Z,75.53
2019-05-09T17:18:19.620Z,76.19
2019-05-09T17:21:21.559Z,75.10
2019-05-09T17:23:49.380Z,80.53
2019-05-09T17:26:19.406Z,76.21
2019-05-09T17:28:49.403Z,75.24
2019-05-09T17:31:19.399Z,77.13
2019-05-09T17:33:49.415Z,75.70
2019-05-09T17:36:19.392Z,75.42
2019-05-09T17:38:49.417Z,77.06
2019-05-09T17:41:20.075Z,79.92
2019-05-09T17:43:50.052Z,78.02
2019-05-09T17:46:20.059Z,76.02
2019-05-09T17:48:50.105Z,78.43
2019-05-09T17:51:32.654Z,77.23
2019-05-09T17:53:52.354Z,76.94
2019-05-09T17:56:22.462Z,78.58
2019-05-09T17:58:52.470Z,79.82
2019-05-09T18:01:22.472Z,79.20
2019-05-09T18:03:52.523Z,78.53
2019-05-09T18:06:22.513Z,78.72
2019-05-09T18:08:52.517Z,78.11
2019-05-09T18:11:22.545Z,77.62
2019-05-09T18:13:52.579Z,77.81
2019-05-09T18:16:22.583Z,77.58
2019-05-09T18:18:54.510Z,76.92
2019-05-09T18:21:24.491Z,76.75
2019-05-09T18:23:54.511Z,77.12
2019-05-09T18:26:24.501Z,77.57
2019-05-09T18:28:54.595Z,77.87
2019-05-09T18:31:28.718Z,77.95
2019-05-09T18:34:02.546Z,77.71
2019-05-09T18:36:32.549Z,78.14
2019-05-09T18:39:02.659Z,78.30
2019-05-09T18:41:32.664Z,78.41
2019-05-09T18:44:02.717Z,78.46
2019-05-09T18:46:32.761Z,77.95
2019-05-09T18:49:02.843Z,78.24
2019-05-09T18:51:32.876Z,78.60
2019-05-09T18:54:04.077Z,78.75
2019-05-09T18:56:34.129Z,78.82
2019-05-09T18:59:04.226Z,78.95
2019-05-09T19:01:34.655Z,78.63
2019-05-09T19:04:04.578Z,78.72
2019-05-09T19:06:34.604Z,78.31
2019-05-09T19:09:05.631Z,78.82
2019-05-09T19:11:35.643Z,79.49
2019-05-09T19:14:06.815Z,80.06
2019-05-09T19:17:02.204Z,79.28
2019-05-09T19:22:34.388Z,78.97
2019-05-09T19:25:06.941Z,78.65
2019-05-09T19:27:37.045Z,78.93
2019-05-09T19:30:08.595Z,78.67
2019-05-09T19:32:38.597Z,79.30
2019-05-09T19:35:10.314Z,78.54
2019-05-09T19:37:40.324Z,78.41
2019-05-09T19:40:13.594Z,78.38
2019-05-09T19:42:43.614Z,78.49
2019-05-09T19:45:25.181Z,78.32
2019-05-09T19:47:55.299Z,78.25
2019-05-09T19:50:26.403Z,78.71
2019-05-09T19:52:56.394Z,78.88
2019-05-09T19:55:26.570Z,78.85
2019-05-09T19:57:56.573Z,78.45
2019-05-09T20:00:26.695Z,78.61
2019-05-09T20:02:56.675Z,78.42
2019-05-09T20:05:26.738Z,78.71
2019-05-09T20:07:56.769Z,78.55
2019-05-09T20:11:04.272Z,78.56
2019-05-09T20:13:52.003Z,78.40
2019-05-09T20:16:22.066Z,78.82
2019-05-09T20:18:52.052Z,78.81
2019-05-09T20:21:22.074Z,78.53
2019-05-09T20:23:52.090Z,78.74
2019-05-09T20:26:22.367Z,78.61
2019-05-09T20:28:52.366Z,78.66
2019-05-09T20:31:22.418Z,79.11
2019-05-09T20:33:52.387Z,79.09
2019-05-09T20:36:22.405Z,78.78
2019-05-09T20:38:52.598Z,78.59
2019-05-09T20:41:22.816Z,79.00
2019-05-09T20:43:53.025Z,78.79
2019-05-09T20:46:23.234Z,78.62
2019-05-09T20:48:53.432Z,78.73
2019-05-09T20:51:23.646Z,78.59
2019-05-09T20:53:53.804Z,78.46
2019-05-09T20:56:24.097Z,78.41
2019-05-09T20:58:54.273Z,78.65
2019-05-09T21:01:24.465Z,78.44
2019-05-09T21:04:00.265Z,78.57
2019-05-09T21:06:26.569Z,78.39
2019-05-09T21:08:56.803Z,79.13
2019-05-09T21:11:27.085Z,78.54
2019-05-09T21:13:57.297Z,78.83
2019-05-09T21:16:27.506Z,78.93
2019-05-09T21:18:57.665Z,78.97
2019-05-09T21:21:27.830Z,78.77
2019-05-09T21:23:58.078Z,79.37
2019-05-09T21:26:28.278Z,79.56
2019-05-09T21:28:58.452Z,80.07
2019-05-09T21:31:29.106Z,80.29
2019-05-09T21:33:59.345Z,79.58
2019-05-09T21:36:29.404Z,79.95
2019-05-09T21:38:59.418Z,80.19
2019-05-09T21:41:29.369Z,81.42
2019-05-09T21:43:59.340Z,80.52
2019-05-09T21:46:29.372Z,80.20
2019-05-09T21:48:59.378Z,80.49
2019-05-09T21:51:29.345Z,79.41
2019-05-09T21:53:59.338Z,79.73
2019-05-09T21:56:29.312Z,79.17
2019-05-09T21:58:59.311Z,79.10
2019-05-09T22:01:29.270Z,78.80
2019-05-09T22:03:59.282Z,78.73
2019-05-09T22:06:30.947Z,78.63
2019-05-09T22:09:01.534Z,79.11
2019-05-09T22:11:31.592Z,79.03
2019-05-09T22:14:02.383Z,79.03
2019-05-09T22:16:32.363Z,79.14
2019-05-09T22:19:02.680Z,80.36
2019-05-09T22:21:32.685Z,80.49
2019-05-09T22:24:02.666Z,79.53
2019-05-09T22:26:32.829Z,79.42
2019-05-09T22:29:02.898Z,79.51
2019-05-09T22:31:32.943Z,78.74
2019-05-09T22:34:02.923Z,79.10
2019-05-09T22:36:32.907Z,79.00
2019-05-09T22:39:04.452Z,78.63
2019-05-09T22:41:34.424Z,78.50
2019-05-09T22:44:04.423Z,78.42
2019-05-09T22:46:34.806Z,78.63
2019-05-09T22:49:04.996Z,79.11
2019-05-09T22:51:34.937Z,79.91
2019-05-09T22:54:12.623Z,79.62
2019-05-09T22:56:36.604Z,79.39
2019-05-09T22:59:06.575Z,80.41
2019-05-09T23:01:36.560Z,80.18
2019-05-09T23:04:06.544Z,79.46
2019-05-09T23:06:36.515Z,79.22
2019-05-09T23:09:07.478Z,79.18
2019-05-09T23:11:37.443Z,78.92
2019-05-09T23:14:07.432Z,79.01
2019-05-09T23:16:39.442Z,78.91
2019-05-09T23:19:09.533Z,78.85
2019-05-09T23:21:39.488Z,79.32
2019-05-09T23:24:11.241Z,79.37
2019-05-09T23:26:41.196Z,79.27
2019-05-09T23:29:11.175Z,79.69
2019-05-09T23:31:48.983Z,79.25
2019-05-09T23:34:18.992Z,79.18
2019-05-09T23:36:48.977Z,78.96
2019-05-09T23:39:22.398Z,79.12
2019-05-09T23:41:52.372Z,80.09
2019-05-09T23:44:22.369Z,79.83
2019-05-09T23:46:52.360Z,79.50
2019-05-09T23:49:22.352Z,79.64
2019-05-09T23:51:52.320Z,79.30
2019-05-09T23:54:48.193Z,79.00
2019-05-09T23:57:29.444Z,79.28
